createdAt,value
2023-02-13T00:00:26.908Z,89.59
2023-02-13T00:02:29.952Z,89.62
2023-02-13T00:04:33.040Z,89.63
2023-02-13T00:06:37.501Z,89.67
2023-02-13T00:08:40.857Z,89.58
2023-02-13T00:10:43.912Z,89.57
2023-02-13T00:12:46.946Z,89.69
2023-02-13T00:14:49.997Z,89.72
2023-02-13T00:16:52.978Z,89.79
2023-02-13T00:18:56.048Z,89.81
2023-02-13T00:21:04.567Z,89.71
2023-02-13T00:23:08.999Z,89.82
2023-02-13T00:25:12.464Z,89.89
2023-02-13T00:27:15.503Z,89.77
2023-02-13T00:29:18.561Z,89.70
2023-02-13T00:31:22.719Z,89.71
2023-02-13T00:33:25.762Z,89.78
2023-02-13T00:35:28.812Z,89.90
2023-02-13T00:37:31.861Z,89.81
2023-02-13T00:39:36.287Z,89.72
2023-02-13T00:41:39.620Z,89.83
2023-02-13T00:43:42.664Z,89.74
2023-02-13T00:45:45.806Z,89.85
2023-02-13T00:47:49.067Z,89.83
2023-02-13T00:49:52.201Z,89.79
2023-02-13T00:51:55.368Z,89.69
2023-02-13T00:53:58.712Z,89.72
2023-02-13T00:56:03.745Z,89.72
2023-02-13T00:58:06.885Z,89.76
2023-02-13T01:00:10.988Z,89.78
2023-02-13T01:02:14.151Z,89.76
2023-02-13T01:04:17.320Z,89.73
2023-02-13T01:06:20.501Z,89.76
2023-02-13T01:08:23.626Z,89.72
2023-02-13T01:10:27.062Z,89.71
2023-02-13T01:12:31.653Z,89.60
2023-02-13T01:14:35.373Z,89.61
2023-02-13T01:16:38.532Z,89.61
2023-02-13T01:18:41.769Z,89.79
2023-02-13T01:20:45.409Z,89.67
2023-02-13T01:22:48.527Z,89.60
2023-02-13T01:24:52.753Z,89.70
2023-02-13T01:26:55.888Z,89.51
2023-02-13T01:29:00.887Z,89.57
2023-02-13T01:31:04.268Z,89.53
2023-02-13T01:33:07.573Z,89.44
2023-02-13T01:35:12.345Z,89.33
2023-02-13T01:37:15.846Z,89.44
2023-02-13T01:39:18.944Z,89.47
2023-02-13T01:41:22.277Z,89.53
2023-02-13T01:43:26.106Z,89.40
2023-02-13T01:45:32.364Z,89.44
2023-02-13T01:47:41.624Z,89.48
2023-02-13T01:49:48.639Z,89.35
2023-02-13T01:51:55.754Z,89.46
2023-02-13T01:54:03.298Z,89.35
2023-02-13T01:56:12.132Z,89.32
2023-02-13T01:58:20.466Z,89.24
2023-02-13T02:00:24.097Z,89.07
2023-02-13T02:02:30.978Z,89.08
2023-02-13T02:04:39.904Z,89.02
2023-02-13T02:06:50.908Z,88.97
2023-02-13T02:09:04.202Z,88.82
2023-02-13T02:11:15.172Z,88.76
2023-02-13T02:13:21.330Z,88.57
2023-02-13T02:15:24.584Z,88.54
2023-02-13T02:17:29.395Z,88.64
2023-02-13T02:19:39.812Z,88.49
2023-02-13T02:22:06.647Z,88.45
2023-02-13T02:24:28.969Z,88.45
2023-02-13T02:26:56.697Z,88.26
2023-02-13T02:29:28.365Z,88.30
2023-02-13T02:32:01.667Z,88.27
2023-02-13T02:34:17.025Z,88.10
2023-02-13T02:36:32.820Z,88.11
2023-02-13T02:38:49.305Z,87.84
2023-02-13T02:41:02.717Z,87.77
2023-02-13T02:43:27.821Z,87.73
2023-02-13T02:45:40.710Z,87.68
2023-02-13T02:48:14.925Z,87.58
2023-02-13T02:50:36.844Z,87.45
2023-02-13T02:52:55.553Z,87.45
2023-02-13T02:55:07.736Z,87.43
2023-02-13T02:57:21.649Z,87.36
2023-02-13T02:59:50.158Z,87.08
2023-02-13T03:02:18.983Z,87.14
2023-02-13T03:04:45.687Z,86.98
2023-02-13T03:06:53.104Z,86.94
2023-02-13T03:09:17.975Z,87.09
2023-02-13T03:11:38.424Z,86.90
2023-02-13T03:13:45.758Z,86.73
2023-02-13T03:16:08.909Z,86.57
2023-02-13T03:18:41.188Z,86.65
2023-02-13T03:21:09.623Z,86.70
2023-02-13T03:23:15.525Z,86.79
2023-02-13T03:25:30.319Z,86.73
2023-02-13T03:27:59.510Z,86.67
2023-02-13T03:30:13.189Z,86.68
2023-02-13T03:32:25.624Z,86.42
2023-02-13T03:34:55.054Z,86.45
2023-02-13T03:37:20.506Z,86.35
2023-02-13T03:39:30.174Z,86.52
2023-02-13T03:41:41.235Z,86.43
2023-02-13T03:43:52.717Z,86.33
2023-02-13T03:45:57.150Z,86.35
2023-02-13T03:48:09.762Z,86.13
2023-02-13T03:50:14.022Z,86.23
2023-02-13T03:52:25.925Z,86.08
2023-02-13T03:54:54.612Z,86.09
2023-02-13T03:57:15.209Z,85.94
2023-02-13T03:59:23.766Z,86.01
2023-02-13T04:01:30.446Z,86.04
2023-02-13T04:03:42.657Z,85.96
2023-02-13T04:05:50.753Z,85.94
2023-02-13T04:07:55.405Z,85.85
2023-02-13T04:10:01.655Z,86.06
2023-02-13T04:12:14.489Z,86.06
2023-02-13T04:14:21.640Z,85.95
2023-02-13T04:16:30.634Z,86.15
2023-02-13T04:18:35.154Z,86.09
2023-02-13T04:20:40.383Z,86.24
2023-02-13T04:22:44.800Z,85.89
2023-02-13T04:24:50.170Z,85.87
2023-02-13T04:26:55.014Z,86.05
2023-02-13T04:28:58.180Z,86.06
2023-02-13T04:31:01.786Z,85.92
2023-02-13T04:33:05.465Z,85.98
2023-02-13T04:35:09.420Z,85.86
2023-02-13T04:37:12.661Z,85.84
2023-02-13T04:39:15.973Z,85.81
2023-02-13T04:41:20.670Z,85.75
2023-02-13T04:43:25.360Z,85.83
2023-02-13T04:45:28.636Z,85.69
2023-02-13T04:47:31.907Z,85.67
2023-02-13T04:49:35.145Z,85.64
2023-02-13T04:51:38.364Z,85.61
2023-02-13T04:53:41.633Z,85.65
2023-02-13T04:55:44.945Z,85.72
2023-02-13T04:57:49.613Z,85.54
2023-02-13T04:59:52.828Z,85.53
2023-02-13T05:01:56.047Z,85.46
2023-02-13T05:03:59.269Z,85.54
2023-02-13T05:06:02.497Z,85.46
2023-02-13T05:08:06.295Z,85.46
2023-02-13T05:10:10.695Z,85.30
2023-02-13T05:12:13.862Z,85.42
2023-02-13T05:14:18.572Z,85.23
2023-02-13T05:16:21.765Z,85.25
2023-02-13T05:18:25.257Z,85.31
2023-02-13T05:20:28.663Z,85.20
2023-02-13T05:22:49.586Z,85.45
2023-02-13T05:24:52.752Z,85.51
2023-02-13T05:26:55.935Z,85.40
2023-02-13T05:29:16.743Z,85.51
2023-02-13T05:31:21.611Z,85.56
2023-02-13T05:33:25.232Z,85.48
2023-02-13T05:35:28.492Z,85.35
2023-02-13T05:37:31.964Z,85.52
2023-02-13T05:39:35.366Z,85.34
2023-02-13T05:41:38.710Z,85.25
2023-02-13T05:43:42.001Z,85.16
2023-02-13T05:45:45.220Z,85.28
2023-02-13T05:47:49.899Z,85.14
2023-02-13T05:49:53.430Z,85.06
2023-02-13T05:51:56.806Z,85.06
2023-02-13T05:54:00.268Z,85.20
2023-02-13T05:56:04.458Z,85.12
2023-02-13T05:58:09.514Z,85.30
2023-02-13T06:00:13.965Z,85.46
2023-02-13T06:02:17.345Z,85.35
2023-02-13T06:04:22.041Z,85.34
2023-02-13T06:06:25.478Z,85.30
2023-02-13T06:08:28.806Z,85.24
2023-02-13T06:10:32.082Z,85.07
2023-02-13T06:12:35.661Z,85.14
2023-02-13T06:14:38.858Z,85.14
2023-02-13T06:16:42.626Z,85.18
2023-02-13T06:18:45.868Z,85.16
2023-02-13T06:20:50.676Z,85.23
2023-02-13T06:22:54.508Z,85.10
2023-02-13T06:24:57.713Z,85.29
2023-02-13T06:27:00.946Z,85.32
2023-02-13T06:29:05.820Z,85.31
2023-02-13T06:31:10.157Z,85.53
2023-02-13T06:33:13.627Z,85.43
2023-02-13T06:35:17.447Z,85.43
2023-02-13T06:37:22.036Z,85.32
2023-02-13T06:39:25.242Z,85.19
2023-02-13T06:41:28.483Z,85.20
2023-02-13T06:43:32.201Z,85.21
2023-02-13T06:45:35.417Z,85.17
2023-02-13T06:47:42.891Z,85.00
2023-02-13T06:49:46.120Z,84.84
2023-02-13T06:51:49.306Z,84.88
2023-02-13T06:53:53.907Z,85.00
2023-02-13T06:55:57.970Z,84.96
2023-02-13T06:58:04.111Z,84.86
2023-02-13T07:00:09.084Z,84.78
2023-02-13T07:02:12.522Z,84.76
2023-02-13T07:04:15.812Z,84.89
2023-02-13T07:06:19.848Z,84.82
2023-02-13T07:08:23.075Z,84.71
2023-02-13T07:10:27.667Z,84.87
2023-02-13T07:12:30.928Z,84.71
2023-02-13T07:14:34.146Z,84.59
2023-02-13T07:16:37.436Z,84.45
2023-02-13T07:18:40.827Z,84.54
2023-02-13T07:20:44.041Z,84.57
2023-02-13T07:22:47.236Z,84.64
2023-02-13T07:24:50.488Z,84.67
2023-02-13T07:26:55.071Z,84.73
2023-02-13T07:29:10.480Z,84.80
2023-02-13T07:31:14.319Z,84.75
2023-02-13T07:33:17.961Z,84.84
2023-02-13T07:35:21.197Z,84.66
2023-02-13T07:37:25.047Z,84.81
2023-02-13T07:39:28.234Z,84.71
2023-02-13T07:41:31.405Z,84.71
2023-02-13T07:43:36.131Z,84.66
2023-02-13T07:45:39.377Z,84.75
2023-02-13T07:47:42.668Z,84.59
2023-02-13T07:49:45.850Z,84.68
2023-02-13T07:51:49.031Z,84.75
2023-02-13T07:53:52.557Z,84.76
2023-02-13T07:55:56.328Z,84.61
2023-02-13T07:58:01.687Z,84.51
2023-02-13T08:00:07.913Z,84.91
2023-02-13T08:02:16.127Z,84.97
2023-02-13T08:04:19.484Z,85.04
2023-02-13T08:06:23.181Z,85.15
2023-02-13T08:08:26.373Z,84.95
2023-02-13T08:10:46.890Z,85.03
2023-02-13T08:12:50.794Z,84.99
2023-02-13T08:14:54.742Z,85.00
2023-02-13T08:17:00.353Z,85.06
2023-02-13T08:19:03.609Z,85.05
2023-02-13T08:21:07.234Z,84.92
2023-02-13T08:23:12.754Z,85.03
2023-02-13T08:25:16.011Z,85.05
2023-02-13T08:27:19.265Z,85.05
2023-02-13T08:29:22.514Z,84.95
2023-02-13T08:31:25.958Z,84.99
2023-02-13T08:33:31.580Z,85.00
2023-02-13T08:35:34.828Z,84.78
2023-02-13T08:37:38.059Z,84.66
2023-02-13T08:39:41.336Z,84.72
2023-02-13T08:41:44.624Z,84.71
2023-02-13T08:43:47.837Z,84.60
2023-02-13T08:45:51.138Z,84.35
2023-02-13T08:47:57.456Z,84.10
2023-02-13T08:50:02.163Z,84.17
2023-02-13T08:52:05.904Z,84.05
2023-02-13T08:54:09.173Z,83.89
2023-02-13T08:56:12.623Z,83.79
2023-02-13T08:58:15.972Z,83.50
2023-02-13T09:00:19.548Z,83.61
2023-02-13T09:02:22.802Z,83.44
2023-02-13T09:04:26.039Z,83.29
2023-02-13T09:06:30.671Z,82.97
2023-02-13T09:08:35.647Z,82.78
2023-02-13T09:10:39.764Z,82.77
2023-02-13T09:12:42.984Z,82.50
2023-02-13T09:14:46.174Z,82.45
2023-02-13T09:16:49.463Z,82.35
2023-02-13T09:18:53.158Z,82.25
2023-02-13T09:21:01.093Z,82.14
2023-02-13T09:23:05.671Z,81.83
2023-02-13T09:25:09.503Z,81.53
2023-02-13T09:27:12.691Z,81.45
2023-02-13T09:29:16.142Z,81.38
2023-02-13T09:31:24.117Z,81.13
2023-02-13T09:33:27.931Z,80.77
2023-02-13T09:35:31.118Z,80.40
2023-02-13T09:37:34.406Z,80.39
2023-02-13T09:39:39.447Z,80.41
2023-02-13T09:41:46.269Z,80.30
2023-02-13T09:43:52.808Z,80.18
2023-02-13T09:45:59.929Z,80.01
2023-02-13T09:48:03.684Z,79.88
2023-02-13T09:50:13.552Z,79.56
2023-02-13T09:52:16.788Z,79.11
2023-02-13T09:54:20.133Z,78.97
2023-02-13T09:56:38.761Z,78.70
2023-02-13T09:58:45.873Z,78.45
2023-02-13T10:00:54.717Z,78.38
2023-02-13T10:03:27.106Z,78.23
2023-02-13T10:05:49.096Z,78.02
2023-02-13T10:08:01.316Z,77.83
2023-02-13T10:10:14.561Z,77.62
2023-02-13T10:12:50.029Z,77.63
2023-02-13T10:15:11.420Z,77.55
2023-02-13T10:17:18.978Z,77.52
2023-02-13T10:19:33.810Z,77.39
2023-02-13T10:21:48.554Z,77.23
2023-02-13T10:23:58.477Z,76.99
2023-02-13T10:26:03.877Z,77.05
2023-02-13T10:28:14.490Z,76.99
2023-02-13T10:30:22.010Z,77.12
2023-02-13T10:32:31.975Z,76.81
2023-02-13T10:34:40.051Z,76.65
2023-02-13T10:36:47.360Z,76.55
2023-02-13T10:38:59.433Z,76.46
2023-02-13T10:41:15.183Z,76.38
2023-02-13T10:43:22.297Z,76.22
2023-02-13T10:45:47.245Z,76.46
2023-02-13T10:48:02.650Z,76.57
2023-02-13T10:50:20.649Z,76.46
2023-02-13T10:52:38.280Z,76.45
2023-02-13T10:54:58.895Z,76.30
2023-02-13T10:57:12.547Z,76.07
2023-02-13T10:59:35.409Z,76.10
2023-02-13T11:01:46.833Z,75.97
2023-02-13T11:04:01.822Z,75.95
2023-02-13T11:06:09.438Z,75.62
2023-02-13T11:08:20.137Z,75.52
2023-02-13T11:10:25.418Z,75.47
2023-02-13T11:12:30.667Z,75.45
2023-02-13T11:14:35.250Z,75.58
2023-02-13T11:16:48.612Z,75.40
2023-02-13T11:18:52.117Z,75.62
2023-02-13T11:21:02.529Z,75.70
2023-02-13T11:23:36.233Z,75.69
2023-02-13T11:25:39.827Z,75.88
2023-02-13T11:27:43.354Z,75.68
2023-02-13T11:29:56.943Z,75.65
2023-02-13T11:32:18.388Z,75.72
2023-02-13T11:34:27.336Z,75.64
2023-02-13T11:36:32.062Z,75.42
2023-02-13T11:38:35.630Z,75.17
2023-02-13T11:40:39.551Z,75.13
2023-02-13T11:42:44.149Z,75.26
2023-02-13T11:44:52.997Z,75.18
2023-02-13T11:46:59.339Z,75.18
2023-02-13T11:49:04.027Z,75.23
2023-02-13T11:51:07.682Z,75.29
2023-02-13T11:53:20.917Z,75.29
2023-02-13T11:55:30.843Z,75.06
2023-02-13T11:57:36.083Z,74.88
2023-02-13T11:59:44.505Z,74.58
2023-02-13T12:01:50.368Z,74.47
2023-02-13T12:04:05.666Z,74.62
2023-02-13T12:06:14.954Z,74.57
2023-02-13T12:08:18.561Z,74.84
2023-02-13T12:10:24.465Z,75.03
2023-02-13T12:12:35.182Z,75.20
2023-02-13T12:14:41.787Z,75.40
2023-02-13T12:16:50.545Z,75.41
2023-02-13T12:18:57.461Z,75.28
2023-02-13T12:21:09.777Z,74.98
2023-02-13T12:23:27.233Z,74.96
2023-02-13T12:25:47.941Z,74.70
2023-02-13T12:28:05.682Z,74.38
2023-02-13T12:30:30.116Z,74.25
2023-02-13T12:32:47.283Z,74.05
2023-02-13T12:35:15.982Z,73.55
2023-02-13T12:37:35.482Z,73.14
2023-02-13T12:39:43.074Z,72.40
2023-02-13T12:41:55.111Z,72.31
2023-02-13T12:44:09.913Z,72.14
2023-02-13T12:46:23.224Z,72.14
2023-02-13T12:48:38.604Z,71.92
2023-02-13T12:50:58.311Z,71.42
2023-02-13T12:53:29.731Z,71.33
2023-02-13T12:55:47.204Z,70.74
2023-02-13T12:58:06.573Z,70.25
2023-02-13T13:00:27.824Z,70.16
2023-02-13T13:03:08.035Z,70.06
2023-02-13T13:05:27.314Z,69.88
2023-02-13T13:07:44.711Z,69.74
2023-02-13T13:10:04.233Z,69.63
2023-02-13T13:12:27.401Z,69.67
2023-02-13T13:14:38.546Z,69.61
2023-02-13T13:16:51.725Z,69.52
2023-02-13T13:19:11.724Z,69.68
2023-02-13T13:21:42.755Z,69.58
2023-02-13T13:23:51.018Z,69.58
2023-02-13T13:26:07.755Z,69.68
2023-02-13T13:28:17.149Z,69.89
2023-02-13T13:30:25.074Z,69.93
2023-02-13T13:32:30.312Z,70.21
2023-02-13T13:34:36.445Z,70.17
2023-02-13T13:36:47.453Z,70.41
2023-02-13T13:39:01.623Z,70.14
2023-02-13T13:41:15.225Z,70.37
2023-02-13T13:43:27.302Z,70.53
2023-02-13T13:45:40.149Z,70.35
2023-02-13T13:47:58.782Z,70.22
2023-02-13T13:50:05.816Z,70.21
2023-02-13T13:52:21.940Z,70.25
2023-02-13T13:54:36.150Z,70.36
2023-02-13T13:57:12.543Z,70.42
2023-02-13T13:59:18.988Z,70.52
2023-02-13T14:01:29.424Z,70.54
2023-02-13T14:03:36.995Z,70.59
2023-02-13T14:05:59.254Z,70.74
2023-02-13T14:08:04.661Z,70.66
2023-02-13T14:10:30.338Z,70.88
2023-02-13T14:12:48.318Z,70.91
2023-02-13T14:14:53.122Z,71.08
2023-02-13T14:16:58.131Z,71.13
2023-02-13T14:19:01.364Z,71.24
2023-02-13T14:21:06.100Z,71.13
2023-02-13T14:23:28.971Z,71.17
2023-02-13T14:25:32.380Z,71.05
2023-02-13T14:27:38.365Z,71.13
2023-02-13T14:29:49.434Z,71.26
2023-02-13T14:32:17.521Z,71.09
2023-02-13T14:34:26.738Z,71.25
2023-02-13T14:36:33.690Z,71.28
2023-02-13T14:38:37.590Z,71.43
2023-02-13T14:40:48.000Z,71.36
2023-02-13T14:42:55.377Z,71.31
2023-02-13T14:45:03.396Z,71.18
2023-02-13T14:47:20.683Z,70.99
2023-02-13T14:49:28.519Z,71.01
2023-02-13T14:51:36.237Z,71.07
2023-02-13T14:53:49.013Z,71.01
2023-02-13T14:55:59.112Z,71.19
2023-02-13T14:58:08.734Z,71.34
2023-02-13T15:00:26.105Z,71.34
2023-02-13T15:02:32.931Z,71.43
2023-02-13T15:04:42.243Z,71.43
2023-02-13T15:06:47.128Z,71.61
2023-02-13T15:08:52.742Z,71.41
2023-02-13T15:10:58.115Z,70.96
2023-02-13T15:13:03.939Z,70.90
2023-02-13T15:15:26.579Z,70.80
2023-02-13T15:17:38.198Z,70.97
2023-02-13T15:19:46.783Z,70.72
2023-02-13T15:21:55.799Z,70.68
2023-02-13T15:23:59.004Z,70.70
2023-02-13T15:26:04.458Z,70.72
2023-02-13T15:28:09.797Z,70.63
2023-02-13T15:30:21.711Z,70.69
2023-02-13T15:32:32.484Z,70.73
2023-02-13T15:34:37.083Z,70.90
2023-02-13T15:36:42.500Z,70.75
2023-02-13T15:38:45.650Z,70.81
2023-02-13T15:40:52.107Z,70.99
2023-02-13T15:42:56.394Z,70.91
2023-02-13T15:44:59.758Z,70.66
2023-02-13T15:47:07.427Z,70.34
2023-02-13T15:49:16.673Z,70.07
2023-02-13T15:51:21.322Z,69.81
2023-02-13T15:53:24.593Z,70.01
2023-02-13T15:55:30.381Z,70.01
2023-02-13T15:57:34.185Z,70.08
2023-02-13T15:59:39.676Z,70.00
2023-02-13T16:01:44.693Z,70.18
2023-02-13T16:03:50.420Z,70.02
2023-02-13T16:05:55.448Z,70.18
2023-02-13T16:08:01.367Z,70.07
2023-02-13T16:10:17.582Z,70.29
2023-02-13T16:12:23.629Z,70.41
2023-02-13T16:14:29.174Z,70.32
2023-02-13T16:16:36.218Z,70.42
2023-02-13T16:18:41.656Z,70.37
2023-02-13T16:20:44.847Z,70.48
2023-02-13T16:22:52.392Z,70.50
2023-02-13T16:25:03.950Z,70.36
2023-02-13T16:27:14.608Z,70.30
2023-02-13T16:29:21.739Z,70.50
2023-02-13T16:31:25.012Z,70.47
2023-02-13T16:33:32.159Z,70.47
2023-02-13T16:35:39.161Z,70.34
2023-02-13T16:37:53.765Z,70.52
2023-02-13T16:39:57.222Z,70.53
2023-02-13T16:42:02.508Z,70.45
2023-02-13T16:44:06.377Z,70.52
2023-02-13T16:46:36.305Z,70.39
2023-02-13T16:48:39.899Z,70.62
2023-02-13T16:50:44.215Z,70.47
2023-02-13T16:52:47.863Z,70.50
2023-02-13T16:54:55.907Z,70.44
2023-02-13T16:57:01.891Z,70.45
2023-02-13T16:59:15.422Z,70.63
2023-02-13T17:01:18.759Z,70.49
2023-02-13T17:03:22.055Z,70.65
2023-02-13T17:05:27.809Z,70.58
2023-02-13T17:07:32.734Z,70.46
2023-02-13T17:09:36.002Z,70.38
2023-02-13T17:11:40.818Z,70.63
2023-02-13T17:13:44.041Z,70.44
2023-02-13T17:15:51.824Z,70.48
2023-02-13T17:17:55.682Z,70.56
2023-02-13T17:19:59.077Z,70.67
2023-02-13T17:22:02.459Z,70.45
2023-02-13T17:24:07.349Z,70.56
2023-02-13T17:26:10.577Z,70.64
2023-02-13T17:28:16.536Z,70.67
2023-02-13T17:30:23.217Z,70.87
2023-02-13T17:32:27.971Z,70.92
2023-02-13T17:34:31.237Z,70.83
2023-02-13T17:36:34.386Z,70.75
2023-02-13T17:38:37.564Z,70.83
2023-02-13T17:40:42.280Z,71.02
2023-02-13T17:42:47.523Z,71.36
2023-02-13T17:44:52.608Z,71.58
2023-02-13T17:46:55.808Z,71.63
2023-02-13T17:48:59.009Z,71.70
2023-02-13T17:51:02.297Z,71.70
2023-02-13T17:53:07.984Z,71.70
2023-02-13T17:55:17.698Z,72.04
2023-02-13T17:57:21.148Z,71.87
2023-02-13T17:59:25.599Z,71.73
2023-02-13T18:01:30.475Z,71.83
2023-02-13T18:03:33.737Z,71.85
2023-02-13T18:05:36.890Z,71.92
2023-02-13T18:07:41.538Z,71.84
2023-02-13T18:09:44.839Z,71.89
2023-02-13T18:12:03.702Z,72.05
2023-02-13T18:14:08.327Z,72.12
2023-02-13T18:16:12.403Z,72.19
2023-02-13T18:18:17.798Z,72.04
2023-02-13T18:20:22.417Z,72.23
2023-02-13T18:22:25.722Z,72.28
2023-02-13T18:24:32.832Z,72.30
2023-02-13T18:26:36.035Z,72.18
2023-02-13T18:28:39.177Z,71.84
2023-02-13T18:30:43.845Z,71.82
2023-02-13T18:32:47.843Z,71.84
2023-02-13T18:34:52.347Z,71.89
2023-02-13T18:36:55.518Z,71.84
2023-02-13T18:38:58.674Z,71.67
2023-02-13T18:41:02.225Z,71.93
2023-02-13T18:43:05.523Z,72.00
2023-02-13T18:45:09.540Z,71.85
2023-02-13T18:47:13.108Z,71.85
2023-02-13T18:49:16.335Z,71.86
2023-02-13T18:51:20.947Z,71.88
2023-02-13T18:53:24.547Z,71.80
2023-02-13T18:55:27.762Z,72.58
2023-02-13T18:57:32.450Z,72.58
2023-02-13T18:59:35.673Z,72.73
2023-02-13T19:01:38.843Z,72.50
2023-02-13T19:03:42.346Z,72.39
2023-02-13T19:05:45.776Z,72.36
2023-02-13T19:07:50.398Z,72.47
2023-02-13T19:09:53.847Z,72.38
2023-02-13T19:11:57.018Z,72.23
2023-02-13T19:14:01.331Z,72.07
2023-02-13T19:16:05.567Z,72.01
2023-02-13T19:18:09.343Z,71.93
2023-02-13T19:20:15.585Z,71.93
2023-02-13T19:22:19.817Z,71.69
2023-02-13T19:24:24.366Z,71.75
2023-02-13T19:26:28.498Z,71.66
2023-02-13T19:28:31.751Z,71.62
2023-02-13T19:30:34.954Z,71.73
2023-02-13T19:32:38.124Z,71.62
2023-02-13T19:34:41.269Z,71.68
2023-02-13T19:36:44.507Z,71.63
2023-02-13T19:38:48.222Z,71.61
2023-02-13T19:40:52.900Z,71.75
2023-02-13T19:42:56.066Z,71.79
2023-02-13T19:44:59.453Z,71.79
2023-02-13T19:47:02.587Z,71.67
2023-02-13T19:49:06.567Z,71.75
2023-02-13T19:51:10.891Z,71.82
2023-02-13T19:53:14.019Z,71.99
2023-02-13T19:55:17.630Z,72.06
2023-02-13T19:57:22.676Z,71.86
2023-02-13T19:59:25.821Z,71.71
2023-02-13T20:01:30.906Z,71.75
2023-02-13T20:03:34.231Z,71.62
2023-02-13T20:05:41.141Z,71.61
2023-02-13T20:07:44.415Z,71.59
2023-02-13T20:09:47.749Z,71.50
2023-02-13T20:11:51.387Z,71.49
2023-02-13T20:13:57.003Z,71.51
2023-02-13T20:16:00.263Z,71.27
2023-02-13T20:18:03.456Z,71.33
2023-02-13T20:20:08.018Z,71.46
2023-02-13T20:22:13.553Z,71.56
2023-02-13T20:24:17.196Z,71.46
2023-02-13T20:26:21.094Z,71.61
2023-02-13T20:28:24.245Z,71.61
2023-02-13T20:30:29.645Z,71.57
2023-02-13T20:32:32.991Z,71.54
2023-02-13T20:34:44.313Z,71.54
2023-02-13T20:36:53.303Z,71.43
2023-02-13T20:38:59.668Z,71.53
2023-02-13T20:41:08.512Z,71.58
2023-02-13T20:43:11.665Z,71.55
2023-02-13T20:45:14.783Z,71.69
2023-02-13T20:47:19.480Z,71.70
2023-02-13T20:49:22.738Z,71.79
2023-02-13T20:51:25.907Z,71.32
2023-02-13T20:53:30.361Z,71.09
2023-02-13T20:55:33.752Z,70.86
2023-02-13T20:57:37.779Z,70.85
2023-02-13T20:59:41.207Z,70.99
2023-02-13T21:01:45.698Z,71.02
2023-02-13T21:03:55.003Z,71.00
2023-02-13T21:05:58.196Z,71.10
2023-02-13T21:08:01.751Z,71.06
2023-02-13T21:10:05.881Z,71.09
2023-02-13T21:12:09.121Z,70.96
2023-02-13T21:14:13.093Z,70.97
2023-02-13T21:16:18.699Z,70.82
2023-02-13T21:18:21.927Z,70.85
2023-02-13T21:20:26.459Z,70.80
2023-02-13T21:22:31.233Z,71.09
2023-02-13T21:24:34.868Z,71.34
2023-02-13T21:26:38.292Z,71.23
2023-02-13T21:28:42.785Z,71.37
2023-02-13T21:30:46.120Z,71.50
2023-02-13T21:32:49.285Z,71.29
2023-02-13T21:34:55.953Z,71.35
2023-02-13T21:37:01.177Z,71.64
2023-02-13T21:39:05.030Z,71.70
2023-02-13T21:41:09.859Z,71.82
2023-02-13T21:43:12.971Z,71.78
2023-02-13T21:45:16.475Z,71.69
2023-02-13T21:47:20.017Z,71.60
2023-02-13T21:49:25.101Z,71.85
2023-02-13T21:51:30.238Z,71.81
2023-02-13T21:53:35.039Z,71.90
2023-02-13T21:55:38.334Z,71.77
2023-02-13T21:57:41.606Z,71.96
2023-02-13T21:59:44.991Z,72.42
2023-02-13T22:01:50.609Z,72.32
2023-02-13T22:03:54.235Z,72.14
2023-02-13T22:05:57.490Z,72.20
2023-02-13T22:08:17.239Z,72.26
2023-02-13T22:10:21.869Z,72.02
2023-02-13T22:12:25.182Z,71.97
2023-02-13T22:14:28.443Z,71.84
2023-02-13T22:16:32.704Z,71.87
2023-02-13T22:18:37.320Z,71.62
2023-02-13T22:20:40.979Z,71.43
2023-02-13T22:22:44.226Z,71.40
2023-02-13T22:24:47.543Z,71.33
2023-02-13T22:26:52.197Z,71.08
2023-02-13T22:28:56.912Z,70.88
2023-02-13T22:31:01.160Z,71.05
2023-02-13T22:33:05.263Z,70.95
2023-02-13T22:35:09.657Z,71.06
2023-02-13T22:37:12.833Z,71.00
2023-02-13T22:39:16.138Z,71.40
2023-02-13T22:41:22.572Z,71.38
2023-02-13T22:43:27.245Z,71.61
2023-02-13T22:45:30.884Z,71.44
2023-02-13T22:47:34.122Z,71.58
2023-02-13T22:49:37.359Z,71.52
2023-02-13T22:51:40.644Z,71.97
2023-02-13T22:53:44.348Z,72.07
2023-02-13T22:55:47.567Z,71.90
2023-02-13T22:57:54.337Z,72.03
2023-02-13T22:59:59.074Z,72.17
2023-02-13T23:02:02.337Z,72.21
2023-02-13T23:04:05.714Z,72.10
2023-02-13T23:06:10.519Z,72.10
2023-02-13T23:08:13.864Z,72.24
2023-02-13T23:10:18.966Z,72.42
2023-02-13T23:12:36.774Z,72.47
2023-02-13T23:14:40.034Z,72.49
2023-02-13T23:17:02.264Z,72.73
2023-02-13T23:19:05.528Z,72.59
2023-02-13T23:21:09.551Z,72.63
2023-02-13T23:23:12.989Z,72.60
2023-02-13T23:25:16.590Z,72.59
2023-02-13T23:27:19.852Z,72.31
2023-02-13T23:29:23.403Z,72.30
2023-02-13T23:31:27.161Z,72.30
2023-02-13T23:33:32.381Z,72.24
2023-02-13T23:35:35.609Z,72.58
2023-02-13T23:37:39.071Z,72.88
2023-02-13T23:39:42.359Z,72.78
2023-02-13T23:41:45.663Z,72.84
2023-02-13T23:43:48.841Z,72.55
2023-02-13T23:45:52.110Z,72.54
2023-02-13T23:47:55.388Z,72.48
2023-02-13T23:49:59.943Z,72.55
2023-02-13T23:52:03.191Z,72.69
2023-02-13T23:54:06.515Z,72.38
2023-02-13T23:56:09.702Z,72.43
2023-02-13T23:58:12.885Z,72.56
